createdAt,value
2018-07-15T00:00:50.107Z,7.00
2018-07-15T00:03:18.221Z,6.90
2018-07-15T00:05:46.330Z,7.07
2018-07-15T00:08:14.462Z,7.10
2018-07-15T00:10:45.801Z,6.87
2018-07-15T00:13:14.490Z,7.17
2018-07-15T00:15:43.683Z,7.10
2018-07-15T00:18:11.821Z,7.23
2018-07-15T00:20:39.939Z,7.17
2018-07-15T00:23:08.076Z,7.57
2018-07-15T00:25:36.587Z,7.27
2018-07-15T00:28:04.826Z,7.00
2018-07-15T00:30:32.940Z,7.27
2018-07-15T00:33:01.097Z,6.90
2018-07-15T00:35:29.220Z,7.23
2018-07-15T00:37:57.375Z,7.40
2018-07-15T00:40:25.256Z,7.20
2018-07-15T00:42:53.501Z,7.03
2018-07-15T00:45:21.662Z,7.27
2018-07-15T00:47:49.789Z,7.13
2018-07-15T00:50:17.909Z,7.20
2018-07-15T00:52:46.023Z,7.07
2018-07-15T00:55:14.188Z,7.53
2018-07-15T00:57:42.271Z,6.80
2018-07-15T01:00:10.381Z,7.20
2018-07-15T01:02:38.502Z,7.07
2018-07-15T01:05:06.381Z,6.53
2018-07-15T01:07:34.549Z,6.33
2018-07-15T01:10:02.451Z,6.70
2018-07-15T01:12:30.595Z,7.60
2018-07-15T01:14:58.706Z,7.43
2018-07-15T01:17:26.834Z,6.57
2018-07-15T01:19:54.954Z,6.80
2018-07-15T01:22:23.084Z,6.70
2018-07-15T01:24:51.194Z,7.53
2018-07-15T01:27:19.313Z,6.97
2018-07-15T01:29:47.357Z,6.63
2018-07-15T01:32:15.479Z,7.40
2018-07-15T01:34:43.603Z,7.30
2018-07-15T01:37:11.736Z,6.83
2018-07-15T01:39:39.873Z,6.87
2018-07-15T01:42:07.844Z,6.67
2018-07-15T01:44:35.976Z,7.07
2018-07-15T01:47:04.121Z,6.80
2018-07-15T01:49:32.252Z,7.20
2018-07-15T01:52:00.379Z,6.87
2018-07-15T01:54:28.526Z,7.53
2018-07-15T01:56:56.649Z,7.37
2018-07-15T01:59:24.781Z,6.90
2018-07-15T02:01:52.912Z,6.67
2018-07-15T02:04:21.116Z,6.70
2018-07-15T02:06:49.180Z,7.37
2018-07-15T02:09:17.093Z,7.00
2018-07-15T02:11:45.221Z,7.43
2018-07-15T02:14:13.179Z,6.87
2018-07-15T02:16:41.260Z,7.40
2018-07-15T02:19:09.167Z,7.27
2018-07-15T02:21:37.300Z,7.30
2018-07-15T02:24:05.476Z,7.20
2018-07-15T02:26:33.422Z,6.47
2018-07-15T02:29:01.564Z,6.87
2018-07-15T02:31:29.719Z,7.37
2018-07-15T02:33:57.865Z,7.40
2018-07-15T02:36:25.816Z,6.80
2018-07-15T02:38:53.946Z,6.80
2018-07-15T02:41:22.077Z,6.30
2018-07-15T02:43:50.162Z,6.40
2018-07-15T02:46:18.287Z,6.57
2018-07-15T02:48:46.439Z,6.73
2018-07-15T02:51:14.568Z,6.73
2018-07-15T02:53:42.689Z,6.97
2018-07-15T02:56:10.842Z,6.77
2018-07-15T02:58:38.980Z,7.03
2018-07-15T03:01:06.862Z,6.83
2018-07-15T03:03:34.997Z,6.87
2018-07-15T03:06:03.112Z,6.97
2018-07-15T03:08:32.237Z,6.67
2018-07-15T03:11:00.359Z,6.67
2018-07-15T03:13:28.498Z,6.60
2018-07-15T03:15:56.624Z,7.33
2018-07-15T03:18:24.878Z,6.57
2018-07-15T03:20:52.767Z,6.77
2018-07-15T03:23:20.958Z,6.57
2018-07-15T03:25:49.073Z,6.70
2018-07-15T03:28:17.244Z,6.97
2018-07-15T03:30:45.376Z,7.17
2018-07-15T03:33:13.500Z,7.23
2018-07-15T03:35:41.620Z,6.80
2018-07-15T03:38:09.760Z,6.47
2018-07-15T03:40:37.883Z,6.83
2018-07-15T03:43:06.000Z,6.67
2018-07-15T03:45:33.967Z,6.90
2018-07-15T03:48:01.859Z,6.40
2018-07-15T03:50:30.013Z,6.73
2018-07-15T03:52:57.976Z,7.00
2018-07-15T03:55:25.891Z,7.03
2018-07-15T03:57:54.012Z,7.37
2018-07-15T04:00:21.979Z,7.17
2018-07-15T04:02:49.876Z,7.03
2018-07-15T04:05:18.016Z,7.00
2018-07-15T04:07:46.144Z,6.50
2018-07-15T04:10:14.548Z,6.70
2018-07-15T04:12:42.668Z,6.90
2018-07-15T04:15:10.869Z,6.67
2018-07-15T04:17:38.948Z,7.20
2018-07-15T04:20:07.160Z,6.93
2018-07-15T04:22:35.327Z,6.70
2018-07-15T04:25:03.480Z,6.73
2018-07-15T04:27:31.600Z,6.43
2018-07-15T04:29:59.748Z,6.53
2018-07-15T04:32:27.874Z,6.80
2018-07-15T04:34:56.032Z,6.87
2018-07-15T04:37:24.173Z,6.40
2018-07-15T04:39:52.316Z,6.57
2018-07-15T04:42:20.460Z,6.70
2018-07-15T04:44:48.593Z,6.67
2018-07-15T04:47:16.721Z,6.60
2018-07-15T04:49:44.869Z,6.60
2018-07-15T04:52:12.996Z,7.13
2018-07-15T04:54:41.143Z,7.23
2018-07-15T04:57:09.260Z,7.43
2018-07-15T04:59:37.402Z,6.90
2018-07-15T05:02:05.779Z,7.07
2018-07-15T05:04:33.817Z,7.17
2018-07-15T05:07:01.966Z,6.77
2018-07-15T05:09:29.928Z,7.50
2018-07-15T05:11:57.894Z,7.47
2018-07-15T05:14:26.028Z,7.23
2018-07-15T05:16:54.158Z,6.90
2018-07-15T05:19:22.300Z,7.30
2018-07-15T05:21:50.523Z,9.10
2018-07-15T05:24:18.655Z,8.97
2018-07-15T05:26:46.806Z,8.77
2018-07-15T05:29:14.956Z,8.63
2018-07-15T05:31:43.093Z,8.57
2018-07-15T05:34:11.048Z,9.97
2018-07-15T05:36:39.183Z,9.10
2018-07-15T05:39:07.485Z,8.93
2018-07-15T05:41:35.637Z,8.77
2018-07-15T05:44:03.760Z,8.97
2018-07-15T05:46:31.901Z,8.20
2018-07-15T05:49:00.034Z,9.40
2018-07-15T05:51:28.176Z,10.00
2018-07-15T05:53:56.307Z,9.60
2018-07-15T05:56:24.455Z,9.63
2018-07-15T05:58:52.612Z,9.87
2018-07-15T06:01:20.769Z,9.60
2018-07-15T06:03:48.900Z,10.30
2018-07-15T06:06:17.053Z,11.00
2018-07-15T06:08:45.180Z,10.63
2018-07-15T06:11:13.147Z,10.37
2018-07-15T06:13:41.323Z,10.10
2018-07-15T06:16:09.296Z,8.93
2018-07-15T06:18:37.547Z,9.73
2018-07-15T06:21:05.741Z,9.70
2018-07-15T06:23:33.688Z,9.70
2018-07-15T06:26:01.828Z,9.40
2018-07-15T06:28:29.977Z,9.33
2018-07-15T06:30:58.122Z,10.20
2018-07-15T06:33:26.092Z,10.57
2018-07-15T06:35:54.073Z,9.90
2018-07-15T06:38:22.195Z,10.50
2018-07-15T06:40:50.336Z,9.97
2018-07-15T06:43:18.480Z,10.37
2018-07-15T06:45:46.448Z,10.17
2018-07-15T06:48:14.339Z,9.80
2018-07-15T06:50:42.486Z,10.00
2018-07-15T06:53:10.448Z,9.47
2018-07-15T06:55:38.419Z,10.30
2018-07-15T06:58:06.316Z,9.43
2018-07-15T07:00:34.474Z,10.63
2018-07-15T07:03:02.376Z,10.10
2018-07-15T07:05:30.709Z,10.00
2018-07-15T07:07:58.792Z,9.67
2018-07-15T07:10:26.984Z,9.80
2018-07-15T07:12:55.124Z,10.47
2018-07-15T07:15:23.095Z,10.10
2018-07-15T07:17:51.076Z,9.67
2018-07-15T07:20:19.218Z,9.70
2018-07-15T07:22:47.357Z,10.57
2018-07-15T07:25:15.496Z,9.13
2018-07-15T07:27:43.632Z,10.13
2018-07-15T07:30:11.772Z,10.63
2018-07-15T07:32:39.904Z,9.93
2018-07-15T07:35:07.980Z,9.53
2018-07-15T07:37:35.956Z,10.10
2018-07-15T07:40:03.884Z,10.27
2018-07-15T07:42:32.028Z,9.57
2018-07-15T07:45:00.161Z,9.63
2018-07-15T07:47:28.301Z,9.43
2018-07-15T07:49:56.438Z,8.60
2018-07-15T07:52:24.578Z,8.53
2018-07-15T07:54:52.712Z,8.13
2018-07-15T07:57:20.839Z,8.40
2018-07-15T07:59:48.964Z,8.50
2018-07-15T08:02:17.116Z,8.27
2018-07-15T08:04:45.239Z,8.70
2018-07-15T08:07:13.207Z,8.47
2018-07-15T08:09:41.108Z,9.93
2018-07-15T08:12:09.272Z,8.80
2018-07-15T08:14:37.462Z,8.50
2018-07-15T08:17:05.635Z,9.00
2018-07-15T08:19:33.740Z,8.13
2018-07-15T08:22:01.877Z,7.90
2018-07-15T08:24:29.999Z,7.33
2018-07-15T08:26:58.136Z,7.77
2018-07-15T08:29:26.344Z,8.17
2018-07-15T08:31:54.493Z,7.83
2018-07-15T08:34:22.617Z,7.43
2018-07-15T08:36:50.752Z,6.53
2018-07-15T08:39:18.877Z,7.87
2018-07-15T08:41:47.017Z,6.67
2018-07-15T08:44:14.929Z,6.40
2018-07-15T08:46:43.057Z,7.20
2018-07-15T08:49:11.174Z,7.30
2018-07-15T08:51:39.305Z,7.10
2018-07-15T08:54:07.201Z,6.90
2018-07-15T08:56:35.349Z,7.40
2018-07-15T08:59:03.476Z,6.67
2018-07-15T09:01:31.704Z,7.37
2018-07-15T09:03:59.603Z,6.80
2018-07-15T09:06:27.740Z,6.90
2018-07-15T09:08:55.873Z,6.13
2018-07-15T09:11:24.032Z,5.77
2018-07-15T09:13:52.168Z,5.93
2018-07-15T09:16:20.295Z,5.50
2018-07-15T09:18:48.440Z,5.70
2018-07-15T09:21:16.646Z,6.53
2018-07-15T09:23:44.544Z,5.50
2018-07-15T09:26:12.516Z,5.07
2018-07-15T09:28:40.416Z,5.20
2018-07-15T09:31:08.551Z,5.43
2018-07-15T09:33:36.684Z,5.00
2018-07-15T09:36:04.821Z,5.70
2018-07-15T09:38:32.964Z,5.23
2018-07-15T09:41:01.074Z,4.73
2018-07-15T09:43:29.204Z,4.77
2018-07-15T09:45:57.327Z,4.73
2018-07-15T09:48:25.473Z,4.87
2018-07-15T09:50:53.597Z,4.60
2018-07-15T09:53:21.762Z,4.43
2018-07-15T09:55:49.901Z,3.60
2018-07-15T09:58:18.072Z,3.40
2018-07-15T10:00:51.474Z,3.80
2018-07-15T10:03:19.603Z,3.40
2018-07-15T10:05:47.880Z,3.60
2018-07-15T10:08:16.021Z,3.00
2018-07-15T10:10:44.151Z,3.60
2018-07-15T10:13:12.315Z,3.40
2018-07-15T10:15:40.219Z,3.17
2018-07-15T10:18:08.368Z,3.40
2018-07-15T10:20:36.315Z,2.90
2018-07-15T10:23:04.479Z,3.30
2018-07-15T10:25:32.603Z,3.80
2018-07-15T10:28:00.745Z,3.70
2018-07-15T10:30:28.704Z,3.70
2018-07-15T10:32:56.691Z,3.50
2018-07-15T10:35:24.639Z,3.53
2018-07-15T10:37:53.124Z,3.60
2018-07-15T10:40:21.234Z,4.07
2018-07-15T10:42:49.369Z,4.13
2018-07-15T10:45:17.487Z,3.80
2018-07-15T10:47:45.641Z,3.80
2018-07-15T10:50:13.775Z,3.00
2018-07-15T10:52:41.946Z,3.33
2018-07-15T10:55:10.041Z,2.97
2018-07-15T10:57:38.047Z,3.33
2018-07-15T11:00:06.678Z,3.10
2018-07-15T11:02:34.809Z,2.90
2018-07-15T11:05:02.950Z,3.30
2018-07-15T11:07:31.096Z,3.60
2018-07-15T11:09:59.231Z,3.10
2018-07-15T11:12:27.351Z,3.20
2018-07-15T11:14:55.323Z,2.93
2018-07-15T11:17:23.283Z,2.90
2018-07-15T11:19:51.408Z,3.13
2018-07-15T11:22:19.565Z,2.90
2018-07-15T11:24:47.444Z,2.90
2018-07-15T11:27:15.592Z,2.63
2018-07-15T11:29:43.724Z,2.60
2018-07-15T11:32:11.880Z,2.83
2018-07-15T11:34:40.013Z,2.93
2018-07-15T11:37:08.127Z,3.10
2018-07-15T11:39:36.256Z,2.93
2018-07-15T11:42:04.396Z,3.17
2018-07-15T11:44:32.585Z,3.50
2018-07-15T11:47:00.475Z,3.07
2018-07-15T11:49:28.712Z,2.67
2018-07-15T11:51:56.836Z,2.93
2018-07-15T11:54:25.027Z,2.87
2018-07-15T11:56:53.128Z,2.50
2018-07-15T11:59:21.263Z,2.50
2018-07-15T12:01:49.440Z,2.43
2018-07-15T12:04:17.555Z,2.23
2018-07-15T12:06:45.676Z,2.27
2018-07-15T12:09:13.799Z,2.30
2018-07-15T12:11:41.923Z,2.00
2018-07-15T12:14:10.073Z,2.10
2018-07-15T12:16:38.188Z,1.90
2018-07-15T12:19:06.393Z,1.80
2018-07-15T12:21:34.537Z,2.13
2018-07-15T12:24:02.670Z,1.90
2018-07-15T12:26:30.808Z,2.17
2018-07-15T12:28:59.082Z,2.33
2018-07-15T12:31:27.219Z,2.30
2018-07-15T12:33:55.351Z,2.30
2018-07-15T12:36:23.320Z,2.30
2018-07-15T12:38:51.223Z,2.73
2018-07-15T12:41:19.357Z,2.30
2018-07-15T12:43:47.311Z,2.50
2018-07-15T12:46:15.447Z,2.80
2018-07-15T12:48:43.596Z,2.63
2018-07-15T12:51:11.735Z,2.53
2018-07-15T12:53:39.852Z,2.30
2018-07-15T12:56:08.221Z,2.77
2018-07-15T12:58:36.352Z,2.50
2018-07-15T13:01:04.504Z,2.70
2018-07-15T13:03:32.656Z,2.40
2018-07-15T13:06:00.797Z,2.43
2018-07-15T13:08:28.925Z,2.30
2018-07-15T13:10:57.088Z,2.20
2018-07-15T13:13:25.387Z,2.60
2018-07-15T13:15:53.556Z,3.20
2018-07-15T13:18:21.680Z,3.47
2018-07-15T13:20:49.817Z,2.37
2018-07-15T13:23:17.948Z,2.80
2018-07-15T13:25:46.072Z,2.60
2018-07-15T13:28:14.213Z,2.73
2018-07-15T13:30:42.332Z,2.60
2018-07-15T13:33:10.472Z,2.43
2018-07-15T13:35:38.589Z,2.10
2018-07-15T13:38:06.753Z,2.23
2018-07-15T13:40:34.878Z,2.23
2018-07-15T13:43:03.016Z,2.30
2018-07-15T13:45:31.163Z,2.10
2018-07-15T13:47:59.300Z,2.20
2018-07-15T13:50:27.427Z,2.30
2018-07-15T13:52:55.565Z,2.50
2018-07-15T13:55:23.480Z,2.10
2018-07-15T13:57:51.620Z,2.17
2018-07-15T14:00:19.731Z,2.40
2018-07-15T14:02:47.857Z,2.60
2018-07-15T14:05:15.983Z,2.23
2018-07-15T14:07:44.118Z,2.20
2018-07-15T14:10:12.264Z,2.20
2018-07-15T14:12:40.384Z,2.10
2018-07-15T14:15:08.559Z,2.10
2018-07-15T14:17:36.680Z,2.17
2018-07-15T14:20:05.192Z,2.20
2018-07-15T14:22:33.344Z,2.57
2018-07-15T14:25:01.469Z,2.10
2018-07-15T14:27:29.620Z,2.15
2018-07-15T14:29:57.752Z,2.40
2018-07-15T14:32:25.896Z,2.30
2018-07-15T14:34:54.029Z,2.20
2018-07-15T14:37:22.196Z,2.17
2018-07-15T14:39:50.322Z,2.35
2018-07-15T14:42:18.448Z,2.35
2018-07-15T14:44:46.586Z,2.22
2018-07-15T14:47:14.540Z,2.30
2018-07-15T14:49:42.666Z,1.90
2018-07-15T14:52:10.812Z,2.05
2018-07-15T14:54:38.944Z,2.10
2018-07-15T14:57:07.092Z,2.10
2018-07-15T14:59:35.216Z,2.45
2018-07-15T15:02:03.430Z,2.10
2018-07-15T15:04:31.475Z,2.35
2018-07-15T15:06:59.624Z,2.10
2018-07-15T15:09:27.747Z,2.10
2018-07-15T15:11:55.894Z,2.33
2018-07-15T15:14:24.080Z,2.40
2018-07-15T15:16:52.230Z,2.10
2018-07-15T15:19:20.352Z,2.20
2018-07-15T15:21:48.511Z,2.10
2018-07-15T15:24:16.631Z,1.80
2018-07-15T15:26:44.769Z,1.97
2018-07-15T15:29:12.900Z,1.90
2018-07-15T15:31:41.037Z,1.87
2018-07-15T15:34:09.010Z,1.60
2018-07-15T15:36:36.964Z,1.80
2018-07-15T15:39:05.544Z,1.70
2018-07-15T15:41:33.664Z,1.60
2018-07-15T15:44:01.808Z,1.60
2018-07-15T15:46:29.751Z,1.77
2018-07-15T15:48:57.896Z,1.70
2018-07-15T15:51:26.028Z,1.73
2018-07-15T15:53:54.152Z,1.97
2018-07-15T15:56:22.295Z,1.60
2018-07-15T15:58:50.441Z,1.70
2018-07-15T16:01:18.559Z,1.73
2018-07-15T16:03:46.779Z,1.67
2018-07-15T16:06:14.744Z,1.90
2018-07-15T16:08:42.733Z,1.57
2018-07-15T16:11:10.868Z,1.70
2018-07-15T16:13:39.009Z,1.73
2018-07-15T16:16:07.168Z,1.80
2018-07-15T16:18:35.059Z,1.60
2018-07-15T16:21:03.192Z,1.90
2018-07-15T16:23:32.189Z,1.57
2018-07-15T16:26:00.325Z,1.60
2018-07-15T16:28:28.288Z,1.40
2018-07-15T16:30:56.212Z,1.50
2018-07-15T16:33:24.344Z,1.60
2018-07-15T16:35:52.287Z,1.47
2018-07-15T16:38:20.436Z,1.80
2018-07-15T16:40:48.569Z,1.60
2018-07-15T16:43:16.717Z,1.80
2018-07-15T16:45:44.672Z,1.60
2018-07-15T16:48:12.808Z,1.60
2018-07-15T16:50:40.927Z,1.70
2018-07-15T16:53:08.834Z,1.53
2018-07-15T16:55:36.975Z,1.80
2018-07-15T16:58:05.143Z,1.90
2018-07-15T17:00:33.099Z,1.70
2018-07-15T17:03:01.304Z,1.83
2018-07-15T17:05:29.401Z,1.57
2018-07-15T17:07:57.520Z,2.07
2018-07-15T17:10:25.485Z,1.60
2018-07-15T17:12:53.615Z,1.80
2018-07-15T17:15:21.752Z,1.60
2018-07-15T17:17:49.892Z,1.50
2018-07-15T17:20:18.019Z,1.67
2018-07-15T17:22:46.127Z,1.60
2018-07-15T17:25:14.288Z,1.60
2018-07-15T17:27:42.575Z,1.60
2018-07-15T17:30:10.720Z,1.67
2018-07-15T17:32:38.848Z,1.60
2018-07-15T17:35:06.832Z,1.60
2018-07-15T17:37:34.964Z,1.80
2018-07-15T17:40:03.097Z,1.50
2018-07-15T17:42:31.224Z,1.73
2018-07-15T17:44:59.130Z,5.13
2018-07-15T17:47:27.235Z,2.00
2018-07-15T17:49:55.378Z,1.43
2018-07-15T17:52:23.500Z,1.43
2018-07-15T17:54:51.652Z,1.60
2018-07-15T17:57:19.792Z,1.40
2018-07-15T17:59:47.928Z,1.50
2018-07-15T18:02:15.900Z,1.40
2018-07-15T18:04:44.084Z,1.60
2018-07-15T18:07:12.172Z,1.40
2018-07-15T18:09:40.312Z,1.50
2018-07-15T18:12:08.379Z,1.30
2018-07-15T18:14:36.348Z,1.50
2018-07-15T18:17:04.306Z,1.40
2018-07-15T18:19:32.441Z,1.10
2018-07-15T18:22:00.568Z,1.23
2018-07-15T18:24:28.711Z,1.17
2018-07-15T18:26:56.846Z,1.10
2018-07-15T18:29:24.995Z,1.30
2018-07-15T18:31:53.120Z,1.33
2018-07-15T18:34:21.295Z,1.13
2018-07-15T18:36:49.431Z,1.17
2018-07-15T18:39:17.567Z,1.40
2018-07-15T18:41:45.522Z,1.27
2018-07-15T18:44:13.663Z,1.30
2018-07-15T18:46:41.783Z,1.37
2018-07-15T18:49:09.920Z,1.30
2018-07-15T18:51:38.064Z,1.30
2018-07-15T18:54:06.232Z,1.20
2018-07-15T18:56:34.363Z,1.20
2018-07-15T18:59:02.302Z,1.00
2018-07-15T19:01:30.432Z,0.90
2018-07-15T19:03:58.612Z,1.03
2018-07-15T19:06:26.757Z,1.03
2018-07-15T19:08:54.658Z,1.03
2018-07-15T19:11:22.807Z,1.17
2018-07-15T19:13:50.946Z,1.10
2018-07-15T19:16:19.143Z,1.27
2018-07-15T19:18:47.279Z,1.10
2018-07-15T19:21:15.415Z,1.13
2018-07-15T19:23:43.539Z,0.93
2018-07-15T19:26:11.820Z,1.03
2018-07-15T19:28:39.950Z,1.20
2018-07-15T19:31:08.117Z,1.40
2018-07-15T19:33:36.284Z,1.00
2018-07-15T19:36:04.413Z,1.00
2018-07-15T19:38:32.327Z,1.00
2018-07-15T19:41:00.459Z,1.10
2018-07-15T19:43:28.628Z,0.90
2018-07-15T19:45:56.756Z,0.90
2018-07-15T19:48:24.891Z,1.10
2018-07-15T19:50:53.022Z,1.10
2018-07-15T19:53:21.166Z,1.10
2018-07-15T19:55:49.423Z,1.20
2018-07-15T19:58:17.523Z,1.20
2018-07-15T20:00:45.658Z,1.07
2018-07-15T20:03:13.810Z,1.10
2018-07-15T20:05:41.935Z,1.40
2018-07-15T20:08:10.061Z,1.40
2018-07-15T20:10:38.202Z,1.00
2018-07-15T20:13:06.391Z,1.07
2018-07-15T20:15:34.528Z,0.93
2018-07-15T20:18:02.655Z,1.20
2018-07-15T20:20:30.844Z,1.10
2018-07-15T20:22:58.952Z,0.90
2018-07-15T20:25:27.104Z,1.13
2018-07-15T20:27:55.252Z,1.10
2018-07-15T20:30:23.416Z,1.10
2018-07-15T20:32:51.559Z,1.23
2018-07-15T20:35:19.567Z,1.40
2018-07-15T20:37:47.745Z,1.20
2018-07-15T20:40:15.856Z,1.10
2018-07-15T20:42:43.978Z,1.47
2018-07-15T20:45:12.131Z,1.30
2018-07-15T20:47:40.292Z,1.30
2018-07-15T20:50:08.260Z,1.47
2018-07-15T20:52:36.159Z,1.50
2018-07-15T20:55:04.302Z,1.53
2018-07-15T20:57:32.439Z,1.30
2018-07-15T21:00:00.581Z,1.30
2018-07-15T21:02:28.769Z,1.50
2018-07-15T21:04:56.850Z,1.30
2018-07-15T21:07:24.984Z,1.73
2018-07-15T21:09:53.119Z,1.37
2018-07-15T21:12:21.283Z,1.60
2018-07-15T21:14:49.428Z,1.40
2018-07-15T21:17:17.589Z,1.30
2018-07-15T21:19:45.711Z,1.67
2018-07-15T21:22:13.856Z,1.50
2018-07-15T21:24:41.994Z,1.50
2018-07-15T21:27:10.128Z,1.50
2018-07-15T21:29:38.262Z,1.47
2018-07-15T21:32:06.528Z,1.43
2018-07-15T21:34:34.669Z,1.43
2018-07-15T21:37:02.567Z,1.40
2018-07-15T21:39:30.709Z,1.47
2018-07-15T21:41:58.848Z,1.50
2018-07-15T21:44:27.029Z,1.40
2018-07-15T21:46:55.137Z,1.30
2018-07-15T21:49:23.256Z,1.30
2018-07-15T21:51:51.407Z,1.60
2018-07-15T21:54:19.537Z,1.30
2018-07-15T21:56:47.504Z,1.47
2018-07-15T21:59:15.464Z,1.50
2018-07-15T22:01:44.072Z,1.57
2018-07-15T22:04:12.412Z,1.30
2018-07-15T22:06:51.955Z,1.60
2018-07-15T22:09:31.681Z,1.60
2018-07-15T22:12:00.395Z,1.33
2018-07-15T22:14:28.402Z,1.27
2018-07-15T22:16:56.549Z,1.53
2018-07-15T22:19:24.689Z,1.53
2018-07-15T22:21:52.851Z,1.40
2018-07-15T22:24:20.976Z,1.50
2018-07-15T22:26:49.114Z,1.37
2018-07-15T22:29:17.248Z,1.60
2018-07-15T22:31:45.389Z,1.50
2018-07-15T22:34:13.516Z,1.93
2018-07-15T22:36:41.672Z,1.60
2018-07-15T22:39:09.802Z,1.90
2018-07-15T22:41:37.729Z,1.73
2018-07-15T22:44:05.973Z,1.80
2018-07-15T22:46:34.092Z,1.50
2018-07-15T22:49:02.221Z,1.63
2018-07-15T22:51:30.385Z,1.67
2018-07-15T22:53:58.504Z,1.77
2018-07-15T22:56:26.643Z,1.73
2018-07-15T22:58:54.777Z,2.70
2018-07-15T23:01:22.903Z,2.20
2018-07-15T23:03:51.043Z,2.70
2018-07-15T23:06:20.408Z,2.03
2018-07-15T23:08:48.599Z,1.90
2018-07-15T23:11:16.729Z,1.90
2018-07-15T23:13:44.867Z,2.10
2018-07-15T23:16:13.017Z,1.70
2018-07-15T23:18:41.164Z,1.77
2018-07-15T23:21:09.293Z,1.80
2018-07-15T23:23:37.425Z,1.73
2018-07-15T23:26:05.379Z,1.80
2018-07-15T23:28:33.355Z,1.90
2018-07-15T23:31:01.319Z,1.70
2018-07-15T23:33:29.292Z,1.80
2018-07-15T23:35:57.187Z,1.80
2018-07-15T23:38:25.323Z,1.87
2018-07-15T23:40:53.452Z,1.50
2018-07-15T23:43:21.591Z,1.90
2018-07-15T23:45:49.728Z,1.80
2018-07-15T23:48:17.866Z,1.90
2018-07-15T23:50:46.011Z,1.70
2018-07-15T23:53:14.164Z,1.77
2018-07-15T23:55:42.134Z,1.87
2018-07-15T23:58:10.049Z,1.50
